Time;durP1;ratioP1;P1;durP2;ratioP2;P2;SDS_P1;SDS_P2;PMS_P1;PMS_P2;Temp;Humidity;BMP_temperature;BMP_pressure;BME280_temperature;BME280_humidity;BME280_pressure;Samples;Min_cycle;Max_cycle;Signal;HPM_P1;HPM_P2
2021/04/08 00:00:16;;;;;;;9.60;4.95;;;;;;;0.38;74.81;100430.28;5093630;28;20089;-69
2021/04/08 00:02:43;;;;;;;9.85;5.43;;;;;;;0.27;74.25;100385.84;5093986;28;20106;-70
2021/04/08 00:05:11;;;;;;;9.70;4.85;;;;;;;0.52;74.20;100418.69;5094211;28;20035;-69
2021/04/08 00:07:37;;;;;;;9.70;5.38;;;;;;;0.59;74.06;100421.22;5094119;28;20467;-71
2021/04/08 00:10:03;;;;;;;8.52;4.97;;;;;;;0.48;74.01;100421.34;5094731;28;20044;-69
2021/04/08 00:12:28;;;;;;;8.38;5.20;;;;;;;0.40;74.30;100421.50;5093822;28;20092;-69
2021/04/08 00:14:54;;;;;;;11.43;5.22;;;;;;;0.25;74.85;100417.34;5094529;28;20067;-69
2021/04/08 00:17:19;;;;;;;8.32;5.20;;;;;;;0.26;74.28;100408.59;5059660;28;20039;-69
2021/04/08 00:19:45;;;;;;;9.15;5.25;;;;;;;0.57;73.88;100423.84;5093957;28;20056;-69
2021/04/08 00:22:10;;;;;;;8.15;4.90;;;;;;;0.37;73.89;100397.06;5094187;28;20079;-69
2021/04/08 00:24:35;;;;;;;9.90;4.97;;;;;;;0.50;73.90;100420.47;5093559;28;20039;-69
2021/04/08 00:27:01;;;;;;;8.88;5.18;;;;;;;0.49;73.46;100434.50;5092895;28;20032;-69
2021/04/08 00:29:26;;;;;;;8.25;4.80;;;;;;;0.26;74.73;100426.09;5092730;28;20042;-70
2021/04/08 00:31:52;;;;;;;10.82;5.35;;;;;;;0.18;74.57;100409.59;5093860;28;20375;-69
2021/04/08 00:34:17;;;;;;;9.18;5.20;;;;;;;0.39;74.16;100434.66;5093023;28;20075;-69
2021/04/08 00:36:43;;;;;;;10.73;5.20;;;;;;;0.39;73.89;100429.41;5094190;28;20047;-68
2021/04/08 00:39:08;;;;;;;8.98;5.20;;;;;;;0.42;73.82;100435.47;5094265;28;20095;-69
2021/04/08 00:41:34;;;;;;;10.07;5.47;;;;;;;0.38;73.22;100422.41;5077329;28;20394;-69
2021/04/08 00:43:59;;;;;;;9.05;4.88;;;;;;;0.54;72.51;100435.25;5060039;28;20067;-69
2021/04/08 00:46:25;;;;;;;9.27;5.15;;;;;;;0.40;73.37;100437.25;5092950;28;20127;-69
2021/04/08 00:48:50;;;;;;;7.88;4.80;;;;;;;0.20;72.24;100368.50;5076143;28;20047;-69
2021/04/08 00:51:16;;;;;;;9.20;4.90;;;;;;;0.45;72.93;100439.78;5093532;28;20501;-69
2021/04/08 00:53:42;;;;;;;8.95;4.70;;;;;;;0.34;73.10;100425.97;5094084;28;20036;-70
2021/04/08 00:56:08;;;;;;;8.73;4.95;;;;;;;0.18;72.76;100397.34;5093269;28;20040;-69
2021/04/08 00:58:34;;;;;;;8.10;4.60;;;;;;;0.25;73.02;100429.59;5093917;28;20039;-69
2021/04/08 01:01:00;;;;;;;8.10;4.72;;;;;;;0.12;73.34;100428.06;5093665;28;20036;-71
2021/04/08 01:03:25;;;;;;;8.35;5.18;;;;;;;0.30;73.24;100426.94;5093634;28;20085;-69
2021/04/08 01:05:51;;;;;;;7.55;4.50;;;;;;;0.41;72.07;100420.63;5093261;28;20081;-69
2021/04/08 01:08:17;;;;;;;7.70;4.72;;;;;;;0.32;72.43;100415.50;5058826;28;20031;-68
2021/04/08 01:10:44;;;;;;;8.55;4.95;;;;;;;0.43;71.90;100433.72;5093110;28;20103;-69
2021/04/08 01:13:13;;;;;;;8.32;4.32;;;;;;;0.31;71.49;100411.16;5092184;28;20123;-69
2021/04/08 01:15:40;;;;;;;7.75;5.00;;;;;;;0.32;72.68;100436.50;5092618;28;20139;-70
2021/04/08 01:18:26;;;;;;;8.30;4.93;;;;;;;0.16;72.92;100442.84;5092156;28;20036;-69
2021/04/08 01:21:05;;;;;;;8.50;5.25;;;;;;;-0.39;73.50;100372.84;5093106;28;20042;-69
2021/04/08 01:23:55;;;;;;;9.18;5.40;;;;;;;-0.09;73.82;100453.72;5092967;28;20032;-71
2021/04/08 01:26:48;;;;;;;7.75;4.95;;;;;;;-0.15;74.08;100456.41;5093132;28;20043;-71
2021/04/08 01:29:49;;;;;;;9.23;4.70;;;;;;;-0.28;74.31;100457.47;5093298;28;20372;-71
2021/04/08 01:32:16;;;;;;;9.73;5.30;;;;;;;-0.23;74.43;100460.88;5092891;28;20393;-70
2021/04/08 01:34:49;;;;;;;11.02;5.70;;;;;;;-0.25;74.35;100462.66;5091347;28;20467;-70
2021/04/08 01:37:20;;;;;;;10.35;5.45;;;;;;;-0.22;74.92;100473.09;5091813;28;20035;-70
2021/04/08 01:39:47;;;;;;;9.57;5.70;;;;;;;-0.28;74.97;100462.72;5091629;28;20431;-70
2021/04/08 01:42:15;;;;;;;10.60;5.40;;;;;;;-0.29;74.95;100466.19;5093001;28;20067;-70
2021/04/08 01:44:41;;;;;;;9.00;4.90;;;;;;;-0.19;74.70;100466.94;5092963;28;20032;-71
2021/04/08 01:47:10;;;;;;;8.88;5.22;;;;;;;-0.31;74.58;100457.47;5092911;28;20070;-71
2021/04/08 01:49:40;;;;;;;8.52;5.35;;;;;;;-0.55;75.38;100436.84;5092662;28;20382;-71
2021/04/08 01:52:07;;;;;;;9.20;4.82;;;;;;;-0.33;74.69;100464.50;5091677;28;20031;-70
2021/04/08 01:54:36;;;;;;;9.93;5.70;;;;;;;-0.28;74.60;100460.09;5092972;28;20028;-72
2021/04/08 01:57:06;;;;;;;9.05;4.70;;;;;;;-0.15;74.19;100466.91;5091886;28;20529;-71
2021/04/08 01:59:33;;;;;;;8.50;4.90;;;;;;;-0.37;74.32;100437.47;5092688;28;20063;-71
2021/04/08 02:01:59;;;;;;;8.63;5.40;;;;;;;-0.31;74.45;100474.06;5093043;28;20123;-71
2021/04/08 02:04:26;;;;;;;9.05;5.00;;;;;;;-0.14;73.91;100471.25;5092952;28;20032;-71
2021/04/08 02:06:52;;;;;;;9.07;4.88;;;;;;;-0.32;73.43;100450.50;5092376;28;20101;-71
2021/04/08 02:09:20;;;;;;;11.48;5.28;;;;;;;-0.14;73.98;100471.25;5091375;28;20126;-70
2021/04/08 02:11:47;;;;;;;7.70;4.13;;;;;;;0.08;72.15;100461.31;5092128;28;20024;-71
2021/04/08 02:14:18;;;;;;;7.18;4.55;;;;;;;-0.27;70.93;100387.56;5093438;28;20078;-71
2021/04/08 02:16:45;;;;;;;7.40;4.65;;;;;;;-0.09;72.36;100458.97;5092305;28;20047;-71
2021/04/08 02:19:12;;;;;;;7.43;4.32;;;;;;;0.38;71.03;100469.63;5092488;28;20052;-71
2021/04/08 02:21:40;;;;;;;9.63;4.78;;;;;;;-0.13;71.43;100423.16;5091232;28;20036;-70
2021/04/08 02:24:07;;;;;;;9.10;4.60;;;;;;;0.22;71.66;100476.88;5091248;28;20032;-70
2021/04/08 02:26:33;;;;;;;9.05;4.93;;;;;;;0.16;71.31;100469.09;5095838;28;20028;-70
2021/04/08 02:29:01;;;;;;;7.55;4.53;;;;;;;0.23;71.01;100479.47;5094830;28;20040;-70
2021/04/08 02:31:29;;;;;;;7.65;4.03;;;;;;;0.33;70.86;100482.84;5096366;28;20501;-70
2021/04/08 02:33:54;;;;;;;7.35;4.20;;;;;;;0.18;70.08;100443.69;5095971;28;20055;-70
2021/04/08 02:36:20;;;;;;;8.43;4.55;;;;;;;0.40;70.18;100476.63;5094813;28;20074;-69
2021/04/08 02:38:45;;;;;;;5.93;3.78;;;;;;;0.43;69.86;100473.06;5077822;28;20032;-69
2021/04/08 02:41:11;;;;;;;6.82;4.32;;;;;;;0.28;69.79;100443.53;5077998;28;20054;-69
2021/04/08 02:43:37;;;;;;;7.35;3.85;;;;;;;0.34;69.48;100445.22;5095999;28;20451;-71
2021/04/08 02:46:04;;;;;;;6.90;3.75;;;;;;;0.61;69.32;100477.16;5094788;28;20042;-71
2021/04/08 02:48:32;;;;;;;6.85;3.92;;;;;;;0.59;69.01;100478.97;5095786;28;20042;-71
2021/04/08 02:51:03;;;;;;;6.97;3.92;;;;;;;0.60;69.34;100486.81;5095682;28;20039;-71
2021/04/08 02:53:52;;;;;;;7.38;3.97;;;;;;;0.55;69.42;100483.38;5094812;28;20028;-70
2021/04/08 02:56:34;;;;;;;6.28;4.07;;;;;;;0.61;69.29;100485.06;5095934;28;20028;-70
2021/04/08 02:59:29;;;;;;;6.93;3.80;;;;;;;0.57;69.19;100487.69;5095833;28;20133;-70
2021/04/08 03:02:10;;;;;;;6.07;3.95;;;;;;;0.60;69.22;100497.31;5095530;28;20064;-71
2021/04/08 03:04:40;;;;;;;7.53;4.30;;;;;;;0.64;68.75;100498.13;5095736;28;20036;-71
2021/04/08 03:07:06;;;;;;;7.95;4.22;;;;;;;0.63;69.05;100505.13;5093970;28;20039;-70
2021/04/08 03:09:38;;;;;;;7.82;4.07;;;;;;;0.51;68.79;100494.81;5095976;28;20028;-72
2021/04/08 03:12:06;;;;;;;6.32;3.72;;;;;;;0.46;68.76;100476.50;5094347;28;20062;-69
2021/04/08 03:14:34;;;;;;;7.32;4.10;;;;;;;0.61;68.94;100508.69;5094238;28;20028;-69
2021/04/08 03:17:02;;;;;;;6.88;4.28;;;;;;;0.55;68.51;100502.63;5095181;28;20062;-69
2021/04/08 03:19:29;;;;;;;6.65;3.97;;;;;;;0.60;69.09;100510.44;5095014;28;20083;-71
2021/04/08 03:21:57;;;;;;;5.88;3.55;;;;;;;0.66;68.79;100498.94;5094861;28;20032;-71
2021/04/08 03:24:24;;;;;;;5.78;2.92;;;;;;;0.80;68.31;100510.13;5093991;28;20510;-70
2021/04/08 03:26:51;;;;;;;6.22;3.35;;;;;;;0.67;67.57;100471.81;5094612;28;20429;-70
2021/04/08 03:29:17;;;;;;;6.43;3.83;;;;;;;0.37;67.80;100432.03;5077641;28;20469;-70
2021/04/08 03:31:46;;;;;;;8.50;4.20;;;;;;;0.85;67.46;100513.53;5094879;28;20032;-72
2021/04/08 03:34:14;;;;;;;7.57;3.72;;;;;;;0.83;67.49;100508.28;5095553;28;20043;-71
2021/04/08 03:36:40;;;;;;;7.72;4.07;;;;;;;0.89;67.28;100523.09;5093916;28;20036;-74
2021/04/08 03:39:07;;;;;;;6.15;3.50;;;;;;;0.98;67.17;100522.94;5094726;28;20467;-70
2021/04/08 03:41:41;;;;;;;6.72;3.65;;;;;;;0.84;67.13;100517.03;5094806;28;20189;-70
2021/04/08 03:44:09;;;;;;;8.98;4.15;;;;;;;0.86;67.00;100520.50;5094975;28;20051;-70
2021/04/08 03:46:39;;;;;;;6.32;3.92;;;;;;;0.99;66.63;100522.06;5094801;28;20036;-70
2021/04/08 03:49:07;;;;;;;6.85;3.83;;;;;;;0.89;66.70;100496.84;5093469;28;20466;-71
2021/04/08 03:51:35;;;;;;;7.57;3.63;;;;;;;1.06;66.45;100528.94;5094793;28;20429;-70
2021/04/08 03:54:06;;;;;;;7.43;4.22;;;;;;;1.10;66.58;100537.63;5094433;28;20066;-70
2021/04/08 03:56:35;;;;;;;6.68;3.70;;;;;;;0.89;66.37;100501.22;5095100;28;20111;-70
2021/04/08 03:59:00;;;;;;;8.68;4.50;;;;;;;1.12;66.18;100539.34;5076654;28;20445;-69
2021/04/08 04:01:26;;;;;;;7.63;4.50;;;;;;;1.04;66.04;100506.19;5093331;28;20130;-70
2021/04/08 04:03:53;;;;;;;6.90;3.97;;;;;;;0.86;65.21;100452.22;5093139;28;20122;-69
2021/04/08 04:06:19;;;;;;;6.05;3.97;;;;;;;1.40;65.55;100544.09;5094172;28;20036;-69
2021/04/08 04:08:45;;;;;;;5.38;3.50;;;;;;;1.39;65.80;100543.25;5094136;28;20036;-69
2021/04/08 04:11:12;;;;;;;8.23;3.55;;;;;;;1.44;65.48;100536.13;5094363;28;20402;-69
2021/04/08 04:13:39;;;;;;;6.93;3.45;;;;;;;1.62;65.01;100544.56;5094205;28;20047;-69
2021/04/08 04:16:07;;;;;;;7.28;3.90;;;;;;;1.61;64.44;100538.44;5092662;28;20047;-68
2021/04/08 04:18:33;;;;;;;7.05;3.90;;;;;;;1.46;64.32;100491.44;5093759;28;20024;-69
2021/04/08 04:21:00;;;;;;;4.43;2.60;;;;;;;1.69;63.86;100519.91;5093822;28;20040;-70
2021/04/08 04:23:25;;;;;;;5.95;3.50;;;;;;;1.85;63.88;100537.13;5093922;28;20040;-70
2021/04/08 04:25:51;;;;;;;4.75;2.17;;;;;;;1.73;63.22;100516.31;5094027;28;20036;-71
2021/04/08 04:28:17;;;;;;;4.25;2.15;;;;;;;1.92;63.18;100537.84;5093761;28;20036;-69
2021/04/08 04:30:42;;;;;;;4.28;2.78;;;;;;;1.84;63.17;100524.00;5093627;28;20422;-68
2021/04/08 04:33:08;;;;;;;5.35;2.90;;;;;;;1.82;63.08;100542.41;5075428;28;20035;-67
2021/04/08 04:35:33;;;;;;;4.95;3.25;;;;;;;1.96;63.44;100550.06;5093850;28;20040;-68
2021/04/08 04:37:58;;;;;;;4.00;2.45;;;;;;;1.85;64.33;100552.03;5092122;28;20047;-68
2021/04/08 04:40:24;;;;;;;5.07;2.47;;;;;;;1.68;66.38;100555.84;5075802;28;20055;-69
2021/04/08 04:42:50;;;;;;;3.72;2.38;;;;;;;1.49;66.87;100533.44;5092085;28;20043;-69
2021/04/08 04:45:16;;;;;;;3.53;2.22;;;;;;;1.63;66.67;100556.81;5093633;28;20032;-69
2021/04/08 04:47:42;;;;;;;4.63;2.67;;;;;;;1.43;67.13;100536.16;5093447;28;20028;-70
2021/04/08 04:50:09;;;;;;;5.40;2.55;;;;;;;1.64;67.21;100569.97;5091160;28;20043;-69
2021/04/08 04:52:35;;;;;;;4.65;2.67;;;;;;;1.59;67.39;100552.53;5092216;28;20032;-67
2021/04/08 04:55:00;;;;;;;3.45;2.00;;;;;;;1.61;68.77;100570.00;5092033;28;20093;-67
2021/04/08 04:57:26;;;;;;;6.53;2.53;;;;;;;1.49;69.37;100564.97;5092435;28;20043;-67
2021/04/08 04:59:51;;;;;;;4.65;2.60;;;;;;;1.49;71.05;100554.47;5092789;28;20071;-68
2021/04/08 05:02:16;;;;;;;2.33;1.63;;;;;;;1.50;72.54;100571.97;5093229;28;20062;-68
2021/04/08 05:04:43;;;;;;;7.93;1.92;;;;;;;1.47;73.12;100565.91;5093175;28;20043;-67
2021/04/08 05:07:08;;;;;;;3.10;1.92;;;;;;;1.55;73.61;100582.41;5092601;28;20371;-68
2021/04/08 05:09:34;;;;;;;5.22;2.47;;;;;;;1.20;76.04;100552.34;5092057;28;20040;-67
2021/04/08 05:11:59;;;;;;;3.88;2.47;;;;;;;1.15;78.88;100590.97;5092025;28;20052;-67
2021/04/08 05:14:25;;;;;;;4.60;2.33;;;;;;;0.97;81.35;100586.88;5074809;28;20448;-69
2021/04/08 05:16:51;;;;;;;2.88;1.92;;;;;;;0.93;82.33;100586.94;5092930;28;20092;-75
2021/04/08 05:19:16;;;;;;;5.65;3.05;;;;;;;0.95;82.42;100600.91;5092939;28;20423;-74
2021/04/08 05:21:42;;;;;;;4.25;2.13;;;;;;;0.80;82.33;100571.38;5093198;28;20053;-73
2021/04/08 05:24:08;;;;;;;2.17;1.50;;;;;;;0.99;82.22;100605.25;5092684;28;20047;-69
2021/04/08 05:26:33;;;;;;;2.28;1.67;;;;;;;0.80;82.80;100571.38;5092905;28;20039;-69
2021/04/08 05:28:58;;;;;;;5.35;3.17;;;;;;;0.78;83.59;100580.19;5092847;28;20459;-68
2021/04/08 05:31:24;;;;;;;8.43;4.47;;;;;;;1.05;83.88;100608.63;5093017;28;20385;-69
2021/04/08 05:33:50;;;;;;;5.03;2.30;;;;;;;1.08;83.66;100605.97;5091279;28;20055;-72
2021/04/08 05:36:15;;;;;;;2.97;1.98;;;;;;;1.11;83.20;100611.16;5095138;28;20035;-72
2021/04/08 05:38:40;;;;;;;7.15;3.75;;;;;;;0.88;83.43;100581.78;5112669;28;20036;-79
2021/04/08 05:41:06;;;;;;;5.95;2.92;;;;;;;1.20;83.29;100611.91;5112848;28;20122;-78
2021/04/08 05:43:31;;;;;;;7.38;3.47;;;;;;;1.46;83.13;100622.00;5094702;28;20028;-79
2021/04/08 05:45:57;;;;;;;8.07;3.90;;;;;;;1.14;84.35;100605.84;5093293;28;20063;-78
2021/04/08 05:48:22;;;;;;;7.40;3.58;;;;;;;1.14;84.22;100618.13;5112652;28;20031;-77
2021/04/08 05:50:48;;;;;;;4.90;2.65;;;;;;;1.17;84.80;100623.34;5112743;28;20020;-78
2021/04/08 05:53:13;;;;;;;14.10;6.70;;;;;;;1.29;85.62;100619.66;5112480;28;20206;-72
2021/04/08 05:55:39;;;;;;;5.93;3.65;;;;;;;1.32;84.91;100619.59;5113030;28;20470;-72
2021/04/08 05:58:04;;;;;;;6.57;4.28;;;;;;;1.45;85.67;100623.78;5094422;28;20038;-71
2021/04/08 06:00:30;;;;;;;7.22;4.70;;;;;;;1.60;85.28;100628.75;5094688;28;20036;-70
2021/04/08 06:02:56;;;;;;;7.00;3.63;;;;;;;1.53;85.07;100628.88;5079319;28;20047;-74
2021/04/08 06:05:22;;;;;;;7.32;4.40;;;;;;;1.53;84.89;100613.09;5096864;28;20385;-72
2021/04/08 06:07:47;;;;;;;6.13;3.80;;;;;;;1.50;85.19;100602.66;5110952;28;20035;-70
2021/04/08 06:10:13;;;;;;;7.05;4.30;;;;;;;1.64;85.08;100633.06;5116636;28;20107;-69
2021/04/08 06:12:43;;;;;;;8.10;4.13;;;;;;;1.60;85.11;100620.00;5116663;28;20028;-73
2021/04/08 06:15:10;;;;;;;5.90;3.83;;;;;;;1.70;84.58;100616.31;5115299;28;20032;-71
2021/04/08 06:17:35;;;;;;;6.78;4.07;;;;;;;1.81;84.72;100639.78;5116345;28;20039;-71
2021/04/08 06:20:03;;;;;;;6.38;3.65;;;;;;;1.77;84.87;100649.50;5116061;28;20392;-71
2021/04/08 06:22:28;;;;;;;6.15;3.72;;;;;;;1.36;85.27;100581.88;5115830;28;20066;-75
2021/04/08 06:24:53;;;;;;;7.10;3.35;;;;;;;1.75;85.64;100648.66;5098052;28;20100;-69
2021/04/08 06:27:19;;;;;;;6.80;4.05;;;;;;;1.68;85.89;100645.25;5115782;28;20462;-70
2021/04/08 06:29:44;;;;;;;6.55;3.65;;;;;;;1.83;85.90;100648.50;5116377;28;20050;-70
2021/04/08 06:32:10;;;;;;;6.63;4.10;;;;;;;1.94;85.84;100649.19;5080697;28;20164;-69
2021/04/08 06:34:35;;;;;;;6.07;3.83;;;;;;;1.67;86.04;100622.50;5094827;28;20040;-71
2021/04/08 06:37:01;;;;;;;6.60;4.25;;;;;;;1.89;86.36;100656.28;5078223;28;20028;-72
2021/04/08 06:39:26;;;;;;;7.13;4.43;;;;;;;1.79;87.06;100639.81;5094515;28;20062;-78
2021/04/08 06:41:54;;;;;;;7.00;4.20;;;;;;;1.89;86.67;100628.22;5094409;28;20086;-76
2021/04/08 06:44:23;;;;;;;7.65;4.18;;;;;;;1.69;86.19;100604.91;5094038;28;20062;-79
2021/04/08 06:46:53;;;;;;;5.57;3.28;;;;;;;1.84;86.32;100650.25;5094561;28;20039;-75
2021/04/08 06:49:28;;;;;;;5.43;3.35;;;;;;;2.09;86.50;100654.16;5094902;28;20077;-79
2021/04/08 06:51:58;;;;;;;6.35;3.30;;;;;;;2.30;85.86;100668.66;5095617;28;20497;-77
2021/04/08 06:54:24;;;;;;;4.63;3.10;;;;;;;2.46;85.35;100661.31;5094577;28;20032;-73
2021/04/08 06:56:50;;;;;;;3.95;2.60;;;;;;;2.64;83.42;100642.50;5095488;28;20367;-72
2021/04/08 06:59:16;;;;;;;3.65;2.72;;;;;;;2.80;83.68;100650.97;5093373;28;20063;-77
2021/04/08 07:01:44;;;;;;;5.22;3.00;;;;;;;3.37;82.38;100658.41;5094086;28;20063;-82
2021/04/08 07:04:10;;;;;;;3.88;1.48;;;;;;;2.87;80.83;100656.03;5096724;28;20036;-77
2021/04/08 07:06:36;;;;;;;5.18;2.63;;;;;;;2.90;81.43;100641.09;5115413;28;20085;-78
2021/04/08 07:09:02;;;;;;;5.30;3.13;;;;;;;2.92;81.49;100641.91;5097108;28;20059;-76
2021/04/08 07:11:28;;;;;;;3.95;2.38;;;;;;;2.75;80.27;100597.50;5096273;28;20027;-75
2021/04/08 07:13:53;;;;;;;4.88;2.90;;;;;;;3.31;80.34;100654.16;5114595;28;20039;-74
2021/04/08 07:16:19;;;;;;;5.47;3.00;;;;;;;3.54;78.58;100672.03;5114639;28;20031;-73
2021/04/08 07:18:45;;;;;;;4.18;2.70;;;;;;;3.30;79.59;100667.38;5079861;28;20516;-72
2021/04/08 07:21:11;;;;;;;6.13;3.80;;;;;;;3.45;78.88;100657.31;5114823;28;20035;-72
2021/04/08 07:23:36;;;;;;;5.28;3.58;;;;;;;3.64;78.36;100672.69;5096781;28;20580;-68
2021/04/08 07:26:10;;;;;;;4.90;3.33;;;;;;;3.33;78.65;100678.72;5114675;28;20114;-76
2021/04/08 07:28:37;;;;;;;4.63;3.47;;;;;;;3.21;78.48;100657.91;5114569;28;20027;-71
2021/04/08 07:31:22;;;;;;;6.90;3.92;;;;;;;3.33;78.07;100689.25;5114399;28;20035;-75
2021/04/08 07:33:49;;;;;;;5.95;4.20;;;;;;;3.45;77.40;100685.44;5096118;28;20039;-75
2021/04/08 07:36:25;;;;;;;4.82;3.60;;;;;;;3.47;76.81;100691.56;5096369;28;20032;-70
2021/04/08 07:38:51;;;;;;;5.50;3.55;;;;;;;3.10;76.61;100644.13;5114780;28;20394;-67
2021/04/08 07:41:27;;;;;;;6.43;4.30;;;;;;;3.75;77.00;100694.38;5096141;28;20065;-73
2021/04/08 07:44:02;;;;;;;6.53;4.25;;;;;;;4.03;76.09;100698.03;5114570;28;20043;-70
2021/04/08 07:46:42;;;;;;;5.97;4.13;;;;;;;3.83;75.70;100673.94;5113966;28;20027;-72
2021/04/08 07:49:32;;;;;;;3.78;2.50;;;;;;;3.85;74.72;100701.16;5114483;28;20035;-72
2021/04/08 07:52:14;;;;;;;6.70;4.30;;;;;;;3.73;75.82;100704.13;5101545;28;20039;-68
2021/04/08 07:54:39;;;;;;;5.40;4.10;;;;;;;3.89;75.17;100704.59;5095954;28;20042;-69
2021/04/08 07:57:05;;;;;;;5.93;3.80;;;;;;;3.96;74.49;100714.97;5114227;28;20031;-71
2021/04/08 07:59:31;;;;;;;3.88;2.67;;;;;;;3.76;73.85;100704.03;5096061;28;20040;-70
2021/04/08 08:02:01;;;;;;;6.00;3.75;;;;;;;3.95;74.63;100709.72;5096135;28;20031;-71
2021/04/08 08:04:27;;;;;;;5.72;3.00;;;;;;;3.92;73.56;100704.50;5113596;28;20027;-72
2021/04/08 08:06:55;;;;;;;5.68;3.63;;;;;;;4.01;73.44;100707.78;5112940;28;20034;-70
2021/04/08 08:09:28;;;;;;;7.38;4.53;;;;;;;4.16;73.68;100710.94;5113616;28;20043;-71
2021/04/08 08:11:56;;;;;;;5.40;3.42;;;;;;;4.27;73.08;100707.09;5112911;28;20031;-70
2021/04/08 08:14:41;;;;;;;3.50;2.33;;;;;;;4.31;71.89;100707.88;5113649;28;20039;-70
2021/04/08 08:17:13;;;;;;;6.88;4.07;;;;;;;4.61;71.99;100716.72;5113760;28;20434;-71
2021/04/08 08:19:42;;;;;;;4.43;2.83;;;;;;;4.49;70.76;100712.66;5113772;28;20086;-70
2021/04/08 08:22:09;;;;;;;7.28;3.72;;;;;;;4.77;69.98;100728.59;5113486;28;20023;-67
2021/04/08 08:24:35;;;;;;;6.32;3.97;;;;;;;4.34;67.35;100635.59;5112224;28;20708;-72
2021/04/08 08:27:00;;;;;;;6.20;3.53;;;;;;;4.83;67.08;100699.34;5095597;28;20031;-69
2021/04/08 08:29:30;;;;;;;7.25;3.95;;;;;;;5.04;67.21;100715.50;5113337;28;20672;-70
2021/04/08 08:32:01;;;;;;;5.43;3.10;;;;;;;5.02;65.84;100720.81;5113797;28;20489;-73
2021/04/08 08:34:26;;;;;;;4.40;2.60;;;;;;;4.79;67.58;100732.06;5113177;28;20043;-71
2021/04/08 08:36:54;;;;;;;4.18;2.42;;;;;;;4.79;66.77;100733.84;5113663;28;20035;-69
2021/04/08 08:39:23;;;;;;;6.85;3.55;;;;;;;4.91;65.74;100736.13;5111982;28;20123;-70
2021/04/08 08:41:49;;;;;;;4.95;2.75;;;;;;;4.86;64.96;100744.19;5113419;28;20031;-67
2021/04/08 08:44:16;;;;;;;5.70;3.85;;;;;;;5.24;63.30;100738.69;5112944;28;20458;-70
2021/04/08 08:46:49;;;;;;;7.75;3.25;;;;;;;5.07;65.16;100710.09;5113419;28;20069;-73
2021/04/08 08:49:19;;;;;;;7.17;4.03;;;;;;;5.06;62.48;100703.94;5111794;28;20024;-71
2021/04/08 08:51:48;;;;;;;5.57;3.72;;;;;;;5.33;63.58;100735.75;5112163;28;20016;-72
2021/04/08 08:54:14;;;;;;;5.97;3.40;;;;;;;5.25;62.17;100735.97;5111703;28;20123;-73
2021/04/08 08:56:40;;;;;;;4.78;3.03;;;;;;;5.21;63.76;100729.06;5113443;28;20110;-73
2021/04/08 08:59:06;;;;;;;6.20;3.40;;;;;;;5.52;61.62;100734.28;5113319;28;20471;-71
2021/04/08 09:01:35;;;;;;;7.63;3.80;;;;;;;5.58;63.06;100718.19;5113085;28;20031;-69
2021/04/08 09:04:02;;;;;;;3.30;2.22;;;;;;;5.62;62.18;100727.75;5111159;28;20023;-72
2021/04/08 09:06:28;;;;;;;4.75;2.90;;;;;;;5.21;62.94;100723.78;5112520;28;20039;-72
2021/04/08 09:08:57;;;;;;;6.15;3.88;;;;;;;5.55;64.18;100728.88;5113039;28;20031;-72
2021/04/08 09:11:31;;;;;;;4.03;2.65;;;;;;;5.47;61.96;100685.91;5111628;28;20494;-69
2021/04/08 09:13:59;;;;;;;3.75;2.15;;;;;;;5.57;61.18;100715.59;5111358;28;20144;-71
2021/04/08 09:16:25;;;;;;;5.25;3.70;;;;;;;5.45;61.09;100712.41;5111624;28;20047;-73
2021/04/08 09:19:09;;;;;;;6.53;3.45;;;;;;;5.38;60.92;100720.59;5112683;28;20028;-74
2021/04/08 09:21:48;;;;;;;7.00;3.13;;;;;;;5.12;62.00;100738.16;5113069;28;20031;-73
2021/04/08 09:24:47;;;;;;;5.32;2.70;;;;;;;4.82;63.41;100704.66;5112488;28;20069;-72
2021/04/08 09:27:13;;;;;;;5.65;3.50;;;;;;;5.13;62.30;100724.00;5109001;28;20036;-72
2021/04/08 09:29:43;;;;;;;5.07;2.40;;;;;;;4.89;64.03;100743.22;5111745;28;20043;-75
2021/04/08 09:32:27;;;;;;;3.50;2.35;;;;;;;4.98;63.14;100748.25;5112557;28;20057;-72
2021/04/08 09:35:05;;;;;;;;;;;;;;;5.25;64.05;100729.84;5114566;28;20079;-73
2021/04/08 09:37:46;;;;;;;5.35;3.45;;;;;;;5.55;62.40;100728.88;5119551;27;20669;-73
2021/04/08 09:40:23;;;;;;;5.93;3.50;;;;;;;5.73;61.22;100732.72;5119314;27;20096;-73
2021/04/08 09:43:09;;;;;;;5.32;3.35;;;;;;;5.77;58.87;100701.69;5119520;27;20036;-74
2021/04/08 09:45:41;;;;;;;2.03;1.58;;;;;;;5.99;56.41;100705.41;5119428;27;20051;-73
2021/04/08 09:48:10;;;;;;;5.15;2.55;;;;;;;5.99;55.79;100692.16;5118587;28;20032;-73
2021/04/08 09:50:53;;;;;;;5.20;2.95;;;;;;;6.15;54.63;100721.63;5119250;27;20469;-74
2021/04/08 09:53:20;;;;;;;4.78;2.83;;;;;;;5.77;50.13;100664.63;5101065;28;20032;-74
2021/04/08 09:56:07;;;;;;;6.18;2.45;;;;;;;6.31;52.94;100714.88;5118174;28;20110;-73
2021/04/08 09:58:35;;;;;;;5.10;2.60;;;;;;;6.37;52.69;100717.31;5119417;27;20042;-73
2021/04/08 10:01:04;;;;;;;3.95;2.10;;;;;;;6.15;54.03;100717.19;5119121;27;20034;-73
2021/04/08 10:03:34;;;;;;;1.80;1.05;;;;;;;5.90;55.51;100734.81;5118639;27;20032;-73
2021/04/08 10:06:12;;;;;;;6.18;3.13;;;;;;;5.97;57.51;100741.63;5119418;27;20550;-73
2021/04/08 10:08:38;;;;;;;3.70;2.58;;;;;;;6.03;57.05;100730.84;5118847;27;20043;-74
2021/04/08 10:11:03;;;;;;;6.57;3.28;;;;;;;6.16;56.34;100737.44;5121399;28;20031;-75
2021/04/08 10:13:31;;;;;;;5.40;3.10;;;;;;;6.41;54.43;100721.56;5100927;28;20039;-75
2021/04/08 10:15:59;;;;;;;3.45;2.20;;;;;;;6.34;56.53;100677.66;5101257;28;20046;-75
2021/04/08 10:18:29;;;;;;;4.82;2.45;;;;;;;6.23;58.60;100704.53;5099600;28;20044;-71
2021/04/08 10:20:57;;;;;;;2.75;1.85;;;;;;;6.04;57.36;100743.16;5119447;28;20435;-73
2021/04/08 10:23:33;;;;;;;4.22;1.75;;;;;;;5.69;55.83;100724.00;5100368;28;20040;-74
2021/04/08 10:26:00;;;;;;;3.97;2.38;;;;;;;5.78;57.63;100698.13;5118941;28;20035;-75
2021/04/08 10:28:26;;;;;;;4.38;2.20;;;;;;;6.25;55.95;100758.31;5100742;28;20040;-72
2021/04/08 10:30:52;;;;;;;5.93;3.22;;;;;;;6.60;55.72;100758.91;5118978;28;20397;-73
2021/04/08 10:33:19;;;;;;;4.70;2.75;;;;;;;6.85;54.53;100757.09;5100325;28;20024;-73
2021/04/08 10:35:45;;;;;;;4.35;2.97;;;;;;;7.03;53.61;100736.09;5118907;28;20062;-68
2021/04/08 10:38:13;;;;;;;3.75;2.00;;;;;;;7.01;52.61;100765.31;5100639;28;20059;-75
2021/04/08 10:40:49;;;;;;;7.68;2.42;;;;;;;5.55;61.28;100760.63;5100649;28;20122;-73
2021/04/08 10:43:16;;;;;;;5.07;2.67;;;;;;;4.23;70.31;100794.34;5118746;28;20040;-73
2021/04/08 10:45:52;;;;;;;4.10;2.42;;;;;;;3.71;75.48;100832.56;5118473;28;20032;-73
2021/04/08 10:48:18;;;;;;;5.65;2.90;;;;;;;3.62;76.69;100844.19;5115031;28;20038;-72
2021/04/08 10:50:43;;;;;;;6.00;3.22;;;;;;;3.36;77.65;100826.28;5097682;28;20043;-73
2021/04/08 10:53:09;;;;;;;5.15;2.35;;;;;;;3.45;78.78;100830.50;5097254;28;20034;-74
2021/04/08 10:55:35;;;;;;;5.20;2.92;;;;;;;3.64;78.85;100854.72;5114991;28;20107;-73
2021/04/08 10:58:01;;;;;;;6.60;2.97;;;;;;;3.91;75.27;100848.81;5086435;28;20057;-74
2021/04/08 11:00:26;;;;;;;5.90;2.75;;;;;;;3.84;72.29;100760.13;5102630;28;20060;-76
2021/04/08 11:02:53;;;;;;;3.72;2.08;;;;;;;4.79;72.03;100858.06;5100969;28;20032;-74
2021/04/08 11:05:26;;;;;;;4.65;2.95;;;;;;;5.12;69.58;100827.19;5113587;28;20085;-74
2021/04/08 11:07:55;;;;;;;4.30;2.55;;;;;;;5.12;69.41;100825.41;5114216;28;20076;-71
2021/04/08 11:10:26;;;;;;;4.35;2.25;;;;;;;4.94;66.28;100872.66;5116613;28;20486;-71
2021/04/08 11:12:53;;;;;;;3.97;2.30;;;;;;;4.70;67.77;100853.00;5115186;28;20027;-76
2021/04/08 11:15:34;;;;;;;5.22;1.02;;;;;;;4.50;69.55;100864.97;5114468;28;20463;-73
2021/04/08 11:18:16;;;;;;;3.08;1.48;;;;;;;4.81;70.82;100856.22;5115403;28;20031;-73
2021/04/08 11:20:45;;;;;;;3.35;1.73;;;;;;;5.12;68.67;100840.41;5114606;28;20047;-74
2021/04/08 11:23:12;;;;;;;3.10;1.58;;;;;;;4.87;69.44;100825.22;5113843;28;20104;-77
2021/04/08 11:25:40;;;;;;;3.85;1.73;;;;;;;4.88;66.95;100775.88;5113825;28;20570;-75
2021/04/08 11:28:07;;;;;;;3.00;1.70;;;;;;;5.30;67.51;100799.31;5115090;28;20045;-77
2021/04/08 11:30:38;;;;;;;3.28;1.65;;;;;;;5.36;63.38;100822.94;5096162;28;20126;-82
2021/04/08 11:33:12;;;;;;;3.10;1.60;;;;;;;5.57;62.58;100809.06;5114864;28;20050;-77
2021/04/08 11:35:44;;;;;;;5.43;2.03;;;;;;;5.68;63.52;100817.53;5114059;28;20039;-79
2021/04/08 11:38:15;;;;;;;1.58;1.27;;;;;;;5.67;61.48;100829.03;5114754;28;20103;-77